RJTS(METAR)
08/13 14:00
METAR RJTS 130500Z 31002KT 9999 FEW050 SCT080 BKN230 31/22 Q1010 RMK
1CU050 3AC080 6CI230 A2982=
戻る
トップページへ戻る
IMOC Co,.Ltd.